Logo AVAMET
Benvolgut visitant, si us plau, ingressa Recuperar contrasenya
AVAMET paisatges

Inforatge Algemesí

Dades diàries. Acumulats / Últims 30 dies disponibles

Data Temperatura (°C) Humitat rel. (%) Pressió rel. (hPa) Vent (km/h) Precipitació
Mínima Mitjana Màxima Amplitud
tèrmica
Mínima Mitjana Màxima Mínima Mitjana Màxima Predom. Mitjana Ràfega
màxima
Total
(mm)
Índex-n
Mínima Mitjana Màxima Mínima Mitjana Màxima n
0 a 1
P0 max
mm 5'
Dades mensuals acumulades fins l'últim dia disponible
03/2020 4,8 10,4 16,6 14,2 9,8 18,8 25,2 20,4 22 70 94 1.001 1.019 1.030   7,3 59,5 93,8
Dades anuals acumulades fins l'últim dia disponible
2020 1,4 8,4 16,6 12,8 8,4 18,5 26,7 25,3 22 74 97 1.001 1.024 1.036   7,1 70,8 217,2
Últims 30 dies disponibles
30-03-2020 8,6     12,4     16,2 7,6 60 74 90 1.013 1.014 1.016 NNE 6,6 35,4 0,8
29-03-2020 7,8     15,1     23,7 15,9 33 60 82 1.013 1.017 1.021 SSW 9,0 27,4 0,0
28-03-2020 4,8     10,9     16,6 11,8 47 77 94 1.018 1.019 1.021 WSW 4,8 20,9 0,4
27-03-2020 5,9     8,3     9,8 3,9 78 87 92 1.014 1.015 1.018 WNW 3,4 19,3 6,8 0,42 0,40
26-03-2020 6,1     10,9     17,4 11,3 34 74 94 1.008 1.011 1.015 NE 5,6 43,5 0,2
25-03-2020 8,7     9,7     12,2 3,5 74 86 94 1.016 1.018 1.019 NNE 4,5 35,4 11,6 0,50 1,30
24-03-2020 12,1     13,3     14,2 2,1 73 82 91 1.016 1.018 1.019 NNE 15,3 48,3 5,8 0,38 0,60
23-03-2020 12,2     13,8     15,6 3,4 80 89 94 1.015 1.017 1.018 NNE 7,2 29,0 10,6 0,35 2,90
22-03-2020 10,0     11,8     14,3 4,3 77 90 94 1.012 1.014 1.016 NNE 4,8 20,9 22,6 0,30 1,80
21-03-2020 10,2     12,5     14,1 3,9 79 84 92 1.013 1.014 1.015 N 4,0 29,0 20,2 0,34 3,30
19-03-2020 11,6     11,9     12,1 0,5 83 86 89 1.025 1.025 1.027 N 3,9 11,3 0,0
18-03-2020 11,9     14,2     16,6 4,7 68 81 89 1.027 1.028 1.030 NNE 7,9 33,8 0,0
17-03-2020 8,7     11,3     14,1 5,4 88 92 94 1.026 1.028 1.030 SW 7,7 41,8 14,8 0,26 0,60
15-03-2020 12,6     14,8     17,9 5,3 68 81 89 1.015 1.019 1.022 ESE 6,1 38,6 0,0
14-03-2020 9,8     14,2     19,2 9,4 64 83 93 1.020 1.021 1.023 WSW 6,6 33,8 0,0
13-03-2020 12,3     14,7     17,2 4,9 68 82 93 1.020 1.021 1.023 NNE 4,8 22,5 0,0
12-03-2020 10,1     15,1     21,7 11,6 56 76 91 1.018 1.021 1.024 NNE 5,6 25,7 0,0
11-03-2020 8,9     16,4     25,2 16,3 36 65 85 1.022 1.024 1.025 WSW 6,3 33,8 0,0
10-03-2020 8,2     15,8     24,3 16,1 31 55 75 1.023 1.025 1.028 WSW 5,0 19,3 0,0
09-03-2020 12,0     16,9     24,1 12,1 28 56 78 1.021 1.023 1.025 SW 5,6 24,1 0,0
08-03-2020 8,7     15,4     25,2 16,5 22 44 77 1.021 1.022 1.025 WSW 7,1 25,7 0,0
06-03-2020 11,9     14,8     18,8 6,9 26 39 58 1.014 1.017 1.023 W 13,0 51,5 0,0
05-03-2020 13,2     18,1     23,1 9,9 37 53 70 1.009 1.013 1.018 W 11,7 59,5 0,0
04-03-2020 16,6     19,4     23,3 6,7 44 57 70 1.017 1.019 1.021 WSW 10,3 48,3 0,0
03-03-2020 10,6     15,5     20,7 10,1 45 52 63 1.013 1.017 1.020 WSW 12,6 53,1 0,0
02-03-2020 13,7     17,4     24,6 10,9 35 46 56 1.001 1.009 1.019 SSW 9,8 27,4 0,0
01-03-2020 12,9     17,8     24,3 11,4 42 51 59 1.012 1.014 1.017 SSW 9,0 35,4 0,0
29-02-2020 7,6     15,0     24,0 16,4 32 61 86 1.012 1.016 1.020 SO 6,4 40,2 0,0
28-02-2020 12,3     15,3     18,8 6,5 31 56 80 1.020 1.022 1.024 SW 6,9 17,7 0,0
27-02-2020 7,9     16,0     23,3 15,4 31 52 72 1.018 1.021 1.023 W 9,2 41,8 0,0
Últims 13 mesos disponibles
02/2020 5,1 9,0 13,7 14,2 14,1 20,9 26,7 21,6 48 72 88 1.016 1.027 1.036 SSW 6,7 41,8 2,4
01/2020 1,4 6,1 13,7 10,4 8,4 16,0 20,3 18,9 59 77 92 1.017 1.027 1.035 SW 7,2 70,8 121,0
12/2019 3,3 9,9 17,9 13,5 12,9 18,0 25,5 22,2 52 71 92 1.007 1.021 1.035 WSW 8,3 64,4 95,2
11/2019 4,8 11,2 20,8 15,2 15,7 19,9 28,1 23,3 48 61 80 1.001 1.012 1.020 WSW 8,8 54,7 10,2
10/2019 10,1 14,9 20,2 19,6 15,6 25,8 34,9 24,8 49 72 87 1.010 1.018 1.023 WSW 5,7 37,0 30,4
09/2019 14,6 19,4 22,9 23,5 21,4 28,1 34,8 20,2 42 75 87 1.011 1.018 1.025 N 7,1 51,5 77,4
08/2019 17,3 21,5 26,0 26,2 26,9 31,4 42,2 24,9 48 72 79 1.011 1.017 1.021 SSE 7,1 46,7 4,8
07/2019 19,9 22,0 25,7 26,4 26,3 30,9 36,4 16,5 58 71 79 1.012 1.016 1.022 SSE 7,1 46,7 2,6
06/2019 13,2 17,2 21,8 22,6 21,7 27,7 35,1 21,9 40 66 79 1.010 1.016 1.023 SE 7,7 53,7 4,0
05/2019 7,6 13,6 19,9 18,7 18,6 23,8 32,7 25,1 49 68 82 1.006 1.016 1.025 SSE 7,5 51,9 6,0
04/2019 7,9 10,9 14,6 15,1 14,6 20,2 29,7 21,8 46 69 94 1.001 1.015 1.027 SSE 8,5 58,0 193,2
03/2019 3,4 8,1 17,3 14,1 13,1 20,3 28,6 25,2 34 62 89 1.013 1.024 1.031 SSE 6,7 51,9 29,2
02/2019 3,2 5,8 11,1 11,6 13,4 18,0 24,9 21,7 36 67 85 994 1.024 1.033 S 6,7 75,9 0,2
Tots els anys disponibles
2019 -1,7 13,3 26,0 18,0 12,7 23,4 42,2 43,9 34 68 94 994 1.018 1.035 SSE 7,4 75,9 453,4
2018 2,0 15,0 25,2 18,9 9,6 23,8 37,3 35,3 37 69 97 994 1.015 1.030 OSO 7,1 94,5 825,0
2017 0,0 13,9 25,9 18,4 8,2 23,6 38,3 38,3 30 70 92 998 1.017 1.037 SE 4,5 70,3 298,5
2016 2,5 14,2 25,0 18,8 11,4 23,4 40,1 37,6 34 67 94 994 1.016 1.035 71,0 356,1
2015 0,7 13,9 21,0 18,8 22,8 23,7 43,0 42,3 60 67 75 1.013 1.017 1.028 80,0 439,8
2014 0,8 15,2 25,3 20,2 11,8 25,2 41,7 40,9 36 65 90 991 1.014 1.032 66,0 167,8
Temperatura (°C)
Humitat relativa (%)
Pressió (hPa)
Precipitació (mm)
Nota sobre les dades: s'avisa a l'usuari de la provisionalitat i no oficialitat d'aquestes dades
Logo AVAMET blanc
Web allotjada a Sollutia
Llicència de Creative CommonsLa web d'AVAMET i els seus continguts estan subjectes a una llicència de
Reconeixement - No Comercial - Compartir igual
Últimes estacions:  Altea - Com. Regants (Soci), Almoines (Inforatge), Beniparrell (Inforatge), Albal (Inforatge), Almussafes - Parc Industrial (Inforatge), La Vilavella (Soci), la Serratella (soci) - - -